Flight Track Log - Related Links

Times and Time Zones

All times are in EDT time to prevent confusion due to time zone crossing. See the N560HM flight status page for this flight to view local times or setup timezone preferences in your user account.

Time Position Orientation Groundspeed Altitude Reporting Facility
EDT Latitude Longitude Course Direction KTS MPH feet Rate Location/Type
Fri 09:53:07 AM 26.2108 -81.6450 North 262 302 6,800  Level Miami Center
Fri 09:54:07 AM 26.2886 -81.6297 10° North 273 314 9,700 2,800 Climbing Miami Center
Fri 09:55:07 AM 26.3611 -81.6489 347° North 287 330 12,400 2,750 Climbing Miami Center
Fri 09:56:07 AM 26.4419 -81.6614 352° North 292 336 15,200 2,400 Climbing Miami Center
Fri 09:57:00 AM 26.7104 -81.7500 North  Level FlightAware Approximate
Fri 09:57:07 AM 26.5272 -81.6789 350° North 298 343 17,200  Level Miami Center
Fri 09:58:07 AM 26.6144 -81.6869 355° North 303 349 19,600 2,150 Climbing Miami Center
Fri 09:59:07 AM 26.7039 -81.7022 351° North 308 354 21,500 1,750 Climbing Miami Center
Fri 10:00:07 AM 26.7931 -81.7153 353° North 314 361 23,100 1,500 Climbing Miami Center
Fri 10:01:07 AM 26.8844 -81.7283 353° North 324 373 24,500 1,400 Climbing Miami Center
Fri 10:02:07 AM 26.9800 -81.7417 353° North 335 386 25,900 1,550 Climbing Miami Center
Fri 10:03:07 AM 27.0858 -81.7647 349° North 345 397 27,600 1,400 Climbing Miami Center
Fri 10:04:07 AM 27.1764 -81.7992 341° North 345 397 28,700 1,150 Climbing Miami Center
Fri 10:05:07 AM 27.2694 -81.8264 345° North 345 397 29,900 1,300 Climbing Miami Center
Fri 10:06:07 AM 27.3539 -81.8558 343° North 340 391 31,300 1,500 Climbing Miami Center
Fri 10:07:07 AM 27.4447 -81.8878 343° North 335 386 32,900 1,750 Climbing Miami Center
Fri 10:08:07 AM 27.5394 -81.9222 342° North 335 386 34,800 1,700 Climbing Miami Center
Fri 10:09:07 AM 27.6239 -81.9542 341° North 324 373 36,300 1,450 Climbing Miami Center
Fri 10:10:07 AM 27.7086 -81.9792 345° North 318 366 37,700 1,400 Climbing Miami Center
Fri 10:11:07 AM 27.7911 -81.9453 20° North 318 366 39,100 1,250 Climbing Miami Center
Fri 10:12:07 AM 27.8858 -81.8625 38° Northeast 340 391 40,200 850 Climbing Miami Center
Fri 10:13:07 AM 27.9739 -81.7936 35° Northeast 359 413 40,800 400 Climbing Miami Center
Fri 10:14:07 AM 28.0639 -81.7200 36° Northeast 381 438 41,000 100 Climbing Miami Center
Fri 10:15:07 AM 28.1603 -81.6464 34° Northeast 395 455 41,000  Level Miami Center
Fri 10:15:58 AM 28.2522 -81.6178 15° North 400 460 41,000  Level Jacksonville Center
Fri 10:16:58 AM 28.3669 -81.6164 North 426 490 41,000  Level Jacksonville Center
Fri 10:17:58 AM 28.4775 -81.6103 North 413 475 41,000  Level Jacksonville Center
Fri 10:18:58 AM 28.5900 -81.6042 North 403 464 41,000  Level Jacksonville Center
Fri 10:19:58 AM 28.7028 -81.5978 North 403 464 41,000  Level Jacksonville Center
Fri 10:20:58 AM 28.8175 -81.5939 North 403 464 41,000  Level Jacksonville Center
Fri 10:21:58 AM 28.9175 -81.5831 North 408 470 41,000  Level Jacksonville Center
Fri 10:22:58 AM 29.0303 -81.5817 North 403 464 41,000  Level Jacksonville Center
Fri 10:23:58 AM 29.1406 -81.5658 North 403 464 41,000  Level Jacksonville Center
Fri 10:24:58 AM 29.2533 -81.5550 North 403 464 41,000  Level Jacksonville Center
Fri 10:25:58 AM 29.3658 -81.5439 North 403 464 41,000  Level Jacksonville Center
Fri 10:26:58 AM 29.4786 -81.5328 North 403 464 41,000  Level Jacksonville Center
Fri 10:27:58 AM 29.5931 -81.5217 North 403 464 41,000  Level Jacksonville Center
Fri 10:28:58 AM 29.7183 -81.5081 North 410 472 41,000  Level Jacksonville Center
Fri 10:29:58 AM 29.8331 -81.4967 North 404 465 41,000  Level Jacksonville Center
Fri 10:30:58 AM 29.9478 -81.4856 North 404 465 41,000  Level Jacksonville Center
Fri 10:31:58 AM 30.0603 -81.4719 North 404 465 41,000  Level Jacksonville Center
Fri 10:32:59 AM 30.1769 -81.4628 North 410 472 41,000  Level Jacksonville Center
Fri 10:33:58 AM 30.2897 -81.4492 North 410 472 41,000  Level Jacksonville Center
Fri 10:34:58 AM 30.4044 -81.4378 North 405 466 41,000  Level Jacksonville Center
Fri 10:35:58 AM 30.5211 -81.4264 North 405 466 41,000  Level Jacksonville Center
Fri 10:36:58 AM 30.6339 -81.4150 North 405 466 41,000  Level Jacksonville Center
Fri 10:37:58 AM 30.7486 -81.4058 North 405 466 41,000  Level Jacksonville Center
Fri 10:38:58 AM 30.8633 -81.3944 North 405 466 41,000  Level Jacksonville Center
Fri 10:39:58 AM 30.9800 -81.3806 North 405 466 41,000  Level Jacksonville Center
Fri 10:40:58 AM 31.0967 -81.3689 North 411 473 41,000  Level Jacksonville Center
Fri 10:41:58 AM 31.2114 -81.3597 North 411 473 41,000  Level Jacksonville Center
Fri 10:42:58 AM 31.3283 -81.3481 North 411 473 41,000  Level Jacksonville Center
Fri 10:43:58 AM 31.4261 -81.3344 North 406 467 41,000  Level Jacksonville Center
Fri 10:44:58 AM 31.5556 -81.3225 North 414 476 41,000  Level Jacksonville Center
Fri 10:45:58 AM 31.6681 -81.3108 North 414 476 41,000  Level Jacksonville Center
Fri 10:46:58 AM 31.7722 -81.2992 North 414 476 41,000  Level Jacksonville Center
Fri 10:47:58 AM 31.8975 -81.2850 North 407 468 41,000  Level Jacksonville Center
Fri 10:48:58 AM 32.0122 -81.2756 North 407 468 41,000  Level Jacksonville Center
Fri 10:49:58 AM 32.1289 -81.2636 North 407 468 41,000  Level Jacksonville Center
Fri 10:50:59 AM 32.2414 -81.2519 North 407 468 41,000  Level Jacksonville Center
Fri 10:51:58 AM 32.3561 -81.2375 North 407 468 41,000  Level Jacksonville Center
Fri 10:52:58 AM 32.4689 -81.2306 North 407 468 41,000  Level Jacksonville Center
Fri 10:53:58 AM 32.5792 -81.2161 North 407 468 41,000  Level Jacksonville Center
Fri 10:54:58 AM 32.6917 -81.2042 North 402 463 41,000  Level Jacksonville Center
Fri 10:55:58 AM 32.8044 -81.1922 North 402 463 41,000  Level Jacksonville Center
Fri 10:56:59 AM 32.9147 -81.1828 North 402 463 41,000  Level Jacksonville Center
Fri 10:57:58 AM 33.0253 -81.1731 North 402 463 41,000  Level Jacksonville Center
Fri 10:58:58 AM 33.1358 -81.1611 North 402 463 41,000  Level Jacksonville Center
Fri 10:59:58 AM 33.2483 -81.1464 North 402 463 41,000  Level Jacksonville Center
Fri 11:00:58 AM 33.3589 -81.1344 North 402 463 41,000  Level Jacksonville Center
Fri 11:01:58 AM 33.4567 -81.1250 North 402 463 41,000  Level Jacksonville Center
Fri 11:04:19 AM 33.7131 -81.0919 North 388 447 41,000  Level Atlanta Center
Fri 11:05:19 AM 33.8211 -81.0808 North 388 447 41,000  Level Atlanta Center
Fri 11:06:19 AM 33.9317 -81.0694 North 388 447 41,000  Level Atlanta Center
Fri 11:07:19 AM 34.0439 -81.0581 North 388 447 41,000  Level Atlanta Center
Fri 11:08:19 AM 34.1522 -81.0442 North 388 447 41,000  Level Atlanta Center
Fri 11:09:19 AM 34.2606 -81.0353 North 388 447 41,000  Level Atlanta Center
Fri 11:10:19 AM 34.3875 -81.0208 North 388 447 41,000  Level Atlanta Center
Fri 11:11:19 AM 34.4956 -81.0067 North 396 456 41,000  Level Atlanta Center
Fri 11:12:19 AM 34.6042 -81.0028 North 396 456 41,000 -350 Level Atlanta Center
Fri 11:13:19 AM 34.7183 -80.9836 North 403 464 40,300 -900 Descending Atlanta Center
Fri 11:14:19 AM 34.8347 -80.9667 North 410 472 39,200 -650 Descending Atlanta Center
Fri 11:15:19 AM 34.9472 -80.9600 North 410 472 39,000 -100 Descending Atlanta Center
Fri 11:16:19 AM 35.0597 -80.9456 North 410 472 39,000  Level Atlanta Center
Fri 11:17:19 AM 35.1783 -80.9361 North 405 466 39,000  Level Atlanta Center
Fri 11:18:19 AM 35.2947 -80.9192 North 410 472 39,000  Level Atlanta Center
Fri 11:19:19 AM 35.4114 -80.9069 North 410 472 39,000  Level Atlanta Center
Fri 11:20:19 AM 35.5172 -80.8928 North 419 482 39,000  Level Atlanta Center
Fri 11:21:19 AM 35.6381 -80.8806 North 424 488 39,000  Level Atlanta Center
Fri 11:22:19 AM 35.7564 -80.8656 North 424 488 39,000  Level Atlanta Center
Fri 11:23:19 AM 35.8750 -80.8533 North 424 488 39,000  Level Atlanta Center
Fri 11:24:19 AM 35.9914 -80.8383 North 419 482 39,000  Level Atlanta Center
Fri 11:25:19 AM 36.1122 -80.8261 North 424 488 39,000  Level Atlanta Center
Fri 11:26:19 AM 36.2286 -80.8136 North 424 488 39,000  Level Atlanta Center
Fri 11:27:19 AM 36.3472 -80.7986 North 424 488 39,000  Level Atlanta Center
Fri 11:28:19 AM 36.4656 -80.7861 North 424 488 39,000  Level Atlanta Center
Fri 11:29:19 AM 36.5842 -80.7708 North 424 488 39,000 -600 Level Atlanta Center
Fri 11:30:19 AM 36.7028 -80.7583 North 424 488 37,800 -1,218 Descending Atlanta Center
Fri 11:32:36 AM 36.9658 -80.7314 North 407 468 35,000 -1,061 Descending Washington Center
Fri 11:33:37 AM 37.0853 -80.7158 North 417 480 34,300 -1,041 Descending Washington Center
Fri 11:34:37 AM 37.2208 -80.6728 14° North 436 502 32,900 -1,388 Descending Washington Center
Fri 11:35:38 AM 37.3414 -80.6336 14° North 441 507 31,500 -1,412 Descending Washington Center
Fri 11:36:36 AM 37.4661 -80.5950 14° North 446 513 30,100 -1,271 Descending Washington Center
Fri 11:37:36 AM 37.5931 -80.5508 15° North 457 526 29,000 -550 Descending Washington Center
Fri 11:38:36 AM 37.7136 -80.5114 15° North 462 532 29,000  Level Washington Center
Fri 11:39:36 AM 37.8236 -80.4739 15° North 462 532 29,000 -400 Level Washington Center
Fri 11:40:36 AM 37.9397 -80.4367 14° North 446 513 28,200 -1,131 Descending Washington Center
Fri 11:41:38 AM 38.0583 -80.3969 15° North 434 499 26,700 -1,350 Descending Washington Center
Fri 11:42:36 AM 38.1725 -80.3567 16° North 429 494 25,500 -1,169 Descending Washington Center
Fri 11:43:36 AM 38.2886 -80.3192 14° North 429 494 24,400 -744 Descending Washington Center
Fri 11:44:37 AM 38.4156 -80.2742 16° North 429 494 24,000 -197 Descending Washington Center
Fri 11:45:38 AM 38.5339 -80.2367 14° North 424 488 24,000 -151 Level Washington Center
Fri 11:46:36 AM 38.6481 -80.1958 16° North 424 488 23,700 -814 Descending Washington Center
Fri 11:47:36 AM 38.7603 -80.1497 18° North 424 488 22,400 -1,230 Descending Washington Center
Fri 11:48:38 AM 38.8544 -80.0861 28° Northeast 424 488 21,200 -416 Descending Washington Center
Fri 11:50:58 AM 39.1036 -79.9225 27° Northeast 422 486 21,000 -59 Descending Cleveland Center
Fri 11:52:00 AM 39.2119 -79.8667 22° Northeast 422 486 21,000  Level Cleveland Center
Fri 11:53:01 AM 39.3231 -79.8531 North 406 467 21,000 -439 Level Cleveland Center
Fri 11:54:03 AM 39.4331 -79.8356 North 405 466 20,100 -1,403 Descending Cleveland Center
Fri 11:55:05 AM 39.5661 -79.8136 North 405 466 18,100 -1,756 Descending Cleveland Center
Fri 11:56:06 AM 39.6744 -79.7967 North 401 461 16,500 -1,561 Descending Cleveland Center
Fri 11:57:08 AM 39.7881 -79.7789 North 389 448 14,900 -1,463 Descending Cleveland Center
Fri 11:58:09 AM 39.8822 -79.7647 North 374 430 13,500 -1,317 Descending Cleveland Center
Fri 11:59:11 AM 39.9839 -79.7478 North 372 428 12,200 -1,306 Descending Cleveland Center
Fri 12:00:13 PM 40.0797 -79.7314 North 358 412 10,800 -1,073 Descending Cleveland Center
Fri 12:01:14 PM 40.1908 -79.7150 North 342 394 10,000 -390 Descending Cleveland Center
Fri 12:02:16 PM 40.2711 -79.7458 344° North 312 359 10,000  Level Cleveland Center
Fri 12:03:18 PM 40.3417 -79.8047 328° Northwest 306 352 10,000 -634 Level Cleveland Center
Fri 12:04:19 PM 40.4089 -79.8506 333° Northwest 280 322 8,700 -1,561 Descending Cleveland Center
Fri 12:05:21 PM 40.4564 -79.9125 315° West 248 285 6,800 -1,984 Descending Cleveland Center
Fri 12:06:23 PM 40.4822 -79.9822 296° West 220 253 4,600 -1,756 Descending Cleveland Center
Fri 12:07:24 PM 40.4814 -80.0667 269° West 196 226 3,200 -1,073 Descending Cleveland Center
Fri 12:08:26 PM 40.4828 -80.1208 272° West 165 190 2,400 -677 Descending Cleveland Center
Fri 12:09:28 PM 40.4847 -80.1628 274° West 134 154 1,800 -581 Descending Cleveland Center
Fri 12:11:00 PM 40.4833 -80.2167 270° West  Level FlightAware Approximate
Fri 12:18:00 PM 40.4914 -80.2327 270° West  Level Estimated

Login

Don't have an account? Register now (free) for customized features, flight alerts, and more!